createdAt,value
2023-04-24T00:02:20.505Z,10.65
2023-04-24T00:04:52.949Z,10.62
2023-04-24T00:07:25.543Z,10.59
2023-04-24T00:09:57.956Z,10.55
2023-04-24T00:12:30.861Z,10.52
2023-04-24T00:15:03.210Z,10.45
2023-04-24T00:17:35.680Z,10.39
2023-04-24T00:20:11.326Z,10.37
2023-04-24T00:22:43.474Z,10.33
2023-04-24T00:25:18.014Z,10.29
2023-04-24T00:27:53.192Z,10.28
2023-04-24T00:30:25.365Z,10.25
2023-04-24T00:32:57.802Z,10.23
2023-04-24T00:35:30.585Z,10.20
2023-04-24T00:38:03.290Z,10.19
2023-04-24T00:40:35.723Z,10.19
2023-04-24T00:43:09.993Z,10.15
2023-04-24T00:45:43.022Z,10.10
2023-04-24T00:48:15.937Z,10.07
2023-04-24T00:50:49.163Z,10.04
2023-04-24T00:53:21.845Z,10.03
2023-04-24T00:55:54.543Z,10.02
2023-04-24T00:58:27.758Z,10.01
2023-04-24T01:01:02.238Z,9.98
2023-04-24T01:03:38.614Z,9.96
2023-04-24T01:06:12.709Z,9.93
2023-04-24T01:08:48.259Z,9.90
2023-04-24T01:11:23.306Z,9.86
2023-04-24T01:13:55.554Z,9.83
2023-04-24T01:16:28.533Z,9.79
2023-04-24T01:19:01.055Z,9.74
2023-04-24T01:21:37.808Z,9.70
2023-04-24T01:24:10.716Z,9.66
2023-04-24T01:26:45.692Z,9.63
2023-04-24T01:29:18.680Z,9.63
2023-04-24T01:31:51.232Z,9.63
2023-04-24T01:34:23.505Z,9.60
2023-04-24T01:36:58.478Z,9.58
2023-04-24T01:39:31.396Z,9.54
2023-04-24T01:42:03.901Z,9.51
2023-04-24T01:44:37.282Z,9.48
2023-04-24T01:53:14.118Z,9.49
2023-04-24T01:55:46.454Z,9.46
2023-04-24T01:58:19.446Z,9.46
2023-04-24T02:00:52.042Z,9.44
2023-04-24T02:03:27.497Z,9.41
2023-04-24T02:06:00.688Z,9.38
2023-04-24T02:08:32.862Z,9.35
2023-04-24T02:11:05.340Z,9.31
2023-04-24T02:13:39.108Z,9.27
2023-04-24T02:16:12.145Z,9.22
2023-04-24T02:18:44.433Z,9.18
2023-04-24T02:21:19.227Z,9.12
2023-04-24T02:23:53.946Z,9.07
2023-04-24T02:26:26.323Z,9.05
2023-04-24T02:28:58.489Z,9.02
2023-04-24T02:31:30.695Z,8.97
2023-04-24T02:34:03.266Z,8.93
2023-04-24T02:36:35.406Z,8.90
2023-04-24T02:39:07.745Z,8.88
2023-04-24T02:41:39.932Z,8.85
2023-04-24T02:44:12.818Z,8.82
2023-04-24T02:46:45.856Z,8.81
2023-04-24T02:49:18.026Z,8.81
2023-04-24T02:51:50.559Z,8.80
2023-04-24T02:54:23.100Z,8.76
2023-04-24T02:56:55.347Z,8.73
2023-04-24T02:59:28.317Z,8.69
2023-04-24T03:02:01.215Z,8.68
2023-04-24T03:04:33.719Z,8.67
2023-04-24T03:07:06.758Z,8.64
2023-04-24T03:09:39.006Z,8.64
2023-04-24T03:12:11.279Z,8.62
2023-04-24T03:14:45.942Z,8.62
2023-04-24T03:17:19.013Z,8.61
2023-04-24T03:19:52.259Z,8.61
2023-04-24T03:22:27.137Z,8.61
2023-04-24T03:24:59.806Z,8.59
2023-04-24T03:27:33.827Z,8.56
2023-04-24T03:30:10.044Z,8.53
2023-04-24T03:32:48.915Z,8.49
2023-04-24T03:35:25.095Z,8.47
2023-04-24T03:37:57.379Z,8.44
2023-04-24T03:40:55.849Z,8.41
2023-04-24T03:43:57.814Z,8.39
2023-04-24T03:46:30.772Z,8.39
2023-04-24T03:49:04.676Z,8.41
2023-04-24T03:54:46.304Z,8.54
2023-04-24T03:57:19.169Z,8.58
2023-04-24T04:00:03.763Z,8.61
2023-04-24T04:02:46.915Z,8.61
2023-04-24T04:05:19.479Z,8.63
2023-04-24T04:07:51.584Z,8.64
2023-04-24T04:10:24.273Z,8.66
2023-04-24T04:12:56.465Z,8.67
2023-04-24T04:15:28.753Z,8.68
2023-04-24T04:18:01.754Z,8.68
2023-04-24T04:20:34.609Z,8.69
2023-04-24T04:23:06.804Z,8.70
2023-04-24T04:25:56.176Z,8.69
2023-04-24T04:28:39.096Z,8.69
2023-04-24T04:31:11.603Z,8.70
2023-04-24T04:33:43.822Z,8.69
2023-04-24T04:36:16.108Z,8.69
2023-04-24T04:38:50.304Z,8.68
2023-04-24T04:41:45.344Z,8.69
2023-04-24T04:44:17.875Z,8.69
2023-04-24T04:46:50.264Z,8.69
2023-04-24T04:49:29.424Z,8.69
2023-04-24T04:52:02.012Z,8.71
2023-04-24T04:54:34.415Z,8.77
2023-04-24T04:57:07.353Z,8.82
2023-04-24T04:59:39.770Z,8.91
2023-04-24T05:02:15.573Z,8.95
2023-04-24T05:04:48.939Z,8.98
2023-04-24T05:07:21.496Z,9.02
2023-04-24T05:09:54.913Z,9.08
2023-04-24T05:12:27.135Z,9.15
2023-04-24T05:14:59.513Z,9.24
2023-04-24T05:17:32.378Z,9.35
2023-04-24T05:20:06.432Z,9.51
2023-04-24T05:22:39.130Z,9.71
2023-04-24T05:25:13.592Z,9.92
2023-04-24T05:27:51.782Z,10.23
2023-04-24T05:30:23.966Z,10.57
2023-04-24T05:32:56.252Z,10.91
2023-04-24T05:35:28.324Z,11.24
2023-04-24T05:38:00.627Z,11.61
2023-04-24T05:40:32.676Z,11.97
2023-04-24T05:43:05.040Z,12.30
2023-04-24T05:45:37.800Z,12.61
2023-04-24T05:48:10.253Z,12.82
2023-04-24T05:50:43.491Z,13.01
2023-04-24T05:53:19.123Z,13.20
2023-04-24T05:55:51.458Z,13.39
2023-04-24T05:58:24.620Z,13.61
2023-04-24T06:00:57.065Z,13.82
2023-04-24T06:03:29.671Z,13.98
2023-04-24T06:06:01.925Z,14.15
2023-04-24T06:08:34.204Z,14.31
2023-04-24T06:11:07.033Z,14.49
2023-04-24T06:13:39.377Z,14.67
2023-04-24T06:16:37.693Z,14.86
2023-04-24T06:19:18.801Z,15.02
2023-04-24T06:21:51.319Z,15.20
2023-04-24T06:24:23.480Z,15.39
2023-04-24T06:26:58.374Z,15.53
2023-04-24T06:29:30.727Z,15.68
2023-04-24T06:32:02.864Z,15.84
2023-04-24T06:34:35.224Z,15.97
2023-04-24T06:37:07.902Z,16.12
2023-04-24T06:39:40.582Z,16.26
2023-04-24T06:42:13.199Z,16.39
2023-04-24T06:44:46.087Z,16.51
2023-04-24T06:47:18.130Z,16.68
2023-04-24T06:49:53.700Z,16.82
2023-04-24T06:52:28.966Z,16.94
2023-04-24T06:55:06.052Z,17.08
2023-04-24T06:57:39.034Z,17.23
2023-04-24T07:00:16.629Z,17.31
2023-04-24T07:02:53.891Z,17.45
2023-04-24T07:05:30.417Z,17.57
2023-04-24T07:08:03.039Z,17.75
2023-04-24T07:10:38.163Z,17.91
2023-04-24T07:13:12.677Z,18.06
2023-04-24T07:15:45.020Z,18.20
2023-04-24T07:18:17.287Z,18.32
2023-04-24T07:20:51.218Z,18.47
2023-04-24T07:23:23.978Z,18.61
2023-04-24T07:29:29.542Z,19.03
2023-04-24T07:32:03.915Z,19.19
2023-04-24T07:34:36.564Z,19.32
2023-04-24T07:37:08.864Z,19.43
2023-04-24T07:39:43.838Z,19.50
2023-04-24T07:42:19.086Z,19.60
2023-04-24T07:44:53.568Z,19.64
2023-04-24T07:47:26.184Z,19.72
2023-04-24T07:49:58.728Z,19.76
2023-04-24T07:52:34.049Z,19.73
2023-04-24T07:55:08.160Z,19.73
2023-04-24T07:57:43.364Z,19.78
2023-04-24T08:00:19.541Z,19.87
2023-04-24T08:02:52.061Z,19.90
2023-04-24T08:05:29.872Z,19.88
2023-04-24T08:08:02.630Z,19.95
2023-04-24T08:10:39.066Z,20.07
2023-04-24T08:13:12.579Z,20.19
2023-04-24T08:15:45.033Z,20.32
2023-04-24T08:18:17.302Z,20.52
2023-04-24T08:20:51.692Z,20.73
2023-04-24T08:23:25.088Z,20.79
2023-04-24T08:25:59.819Z,20.93
2023-04-24T08:28:34.081Z,21.06
2023-04-24T08:31:07.401Z,21.12
2023-04-24T08:33:42.042Z,21.18
2023-04-24T08:36:16.997Z,21.29
2023-04-24T08:38:52.600Z,21.35
2023-04-24T08:41:27.885Z,21.51
2023-04-24T08:44:01.113Z,21.64
2023-04-24T08:46:35.342Z,21.69
2023-04-24T08:49:09.215Z,21.75
2023-04-24T08:51:43.936Z,21.82
2023-04-24T08:54:20.401Z,21.98
2023-04-24T08:57:02.970Z,21.99
2023-04-24T08:59:37.651Z,22.00
2023-04-24T09:02:15.186Z,22.03
2023-04-24T09:04:50.404Z,22.14
2023-04-24T09:07:25.221Z,22.21
2023-04-24T09:10:02.410Z,22.35
2023-04-24T09:12:39.129Z,22.54
2023-04-24T09:15:13.805Z,22.66
2023-04-24T09:17:46.305Z,22.76
2023-04-24T09:20:18.714Z,22.86
2023-04-24T09:22:55.826Z,22.85
2023-04-24T09:25:35.264Z,22.95
2023-04-24T09:28:08.352Z,23.11
2023-04-24T09:30:40.616Z,23.27
2023-04-24T09:33:17.403Z,23.46
2023-04-24T09:35:54.220Z,23.58
2023-04-24T09:38:35.146Z,23.58
2023-04-24T09:41:09.914Z,23.69
2023-04-24T09:43:42.169Z,23.90
2023-04-24T09:46:20.922Z,23.79
2023-04-24T09:48:53.294Z,23.63
2023-04-24T09:51:40.914Z,23.55
2023-04-24T09:54:22.295Z,23.45
2023-04-24T09:56:57.314Z,23.60
2023-04-24T09:59:37.471Z,23.84
2023-04-24T10:02:24.140Z,23.97
2023-04-24T10:05:07.587Z,23.85
2023-04-24T10:07:41.449Z,23.84
2023-04-24T10:10:24.667Z,23.83
2023-04-24T10:12:57.734Z,23.99
2023-04-24T10:15:30.118Z,24.13
2023-04-24T10:18:04.350Z,24.22
2023-04-24T10:20:39.968Z,24.22
2023-04-24T10:23:15.337Z,24.15
2023-04-24T10:25:48.133Z,24.10
2023-04-24T10:28:24.248Z,24.00
2023-04-24T10:30:59.604Z,24.03
2023-04-24T10:33:34.986Z,24.14
2023-04-24T10:36:09.357Z,24.23
2023-04-24T10:38:45.469Z,24.36
2023-04-24T10:41:24.458Z,24.49
2023-04-24T10:44:14.527Z,24.64
2023-04-24T10:46:50.873Z,24.55
2023-04-24T10:49:35.338Z,24.58
2023-04-24T10:52:09.955Z,24.72
2023-04-24T10:54:48.844Z,24.74
2023-04-24T10:57:36.330Z,24.59
2023-04-24T11:00:24.126Z,24.34
2023-04-24T11:02:56.683Z,24.19
2023-04-24T11:05:56.499Z,24.16
2023-04-24T11:08:31.509Z,24.24
2023-04-24T11:11:15.846Z,24.13
2023-04-24T11:14:05.686Z,24.03
2023-04-24T11:16:42.054Z,24.00
2023-04-24T11:19:25.064Z,23.98
2023-04-24T11:22:06.006Z,23.89
2023-04-24T11:24:52.058Z,23.87
2023-04-24T11:27:27.385Z,24.05
2023-04-24T11:30:06.137Z,24.31
2023-04-24T11:32:41.260Z,24.46
2023-04-24T11:35:18.623Z,24.67
2023-04-24T11:38:13.074Z,24.83
2023-04-24T11:40:50.774Z,24.76
2023-04-24T11:43:24.459Z,24.44
2023-04-24T11:45:58.518Z,24.21
2023-04-24T11:48:33.969Z,24.06
2023-04-24T12:04:48.122Z,24.79
2023-04-24T12:07:24.362Z,24.73
2023-04-24T12:10:06.942Z,24.57
2023-04-24T12:12:42.858Z,24.33
2023-04-24T12:15:18.225Z,24.27
2023-04-24T12:17:52.872Z,24.22
2023-04-24T12:20:30.723Z,24.18
2023-04-24T12:23:03.964Z,24.25
2023-04-24T12:25:36.816Z,24.34
2023-04-24T12:28:15.253Z,24.43
2023-04-24T12:34:00.869Z,24.68
2023-04-24T12:36:34.917Z,24.53
2023-04-24T12:39:19.572Z,24.38
2023-04-24T12:42:03.296Z,24.26
2023-04-24T12:44:39.690Z,24.21
2023-04-24T12:47:13.440Z,24.36
2023-04-24T12:49:46.473Z,24.42
2023-04-24T12:52:22.743Z,24.38
2023-04-24T12:54:57.246Z,24.19
2023-04-24T12:57:31.129Z,23.77
2023-04-24T13:00:03.961Z,23.49
2023-04-24T13:02:40.164Z,23.26
2023-04-24T13:05:15.405Z,22.93
